Time;durP1;ratioP1;P1;durP2;ratioP2;P2;SDS_P1;SDS_P2;PMS_P1;PMS_P2;Temp;Humidity;BMP_temperature;BMP_pressure;BME280_temperature;BME280_humidity;BME280_pressure;Samples;Min_cycle;Max_cycle;Signal;HPM_P1;HPM_P2
2022/11/21 00:00:49;;;;;;;11.00;4.78;;;;;;;6.45;100.00;100561.72;5064130;28;20028;-51
2022/11/21 00:03:15;;;;;;;10.43;4.45;;;;;;;6.45;100.00;100587.25;5061076;28;20029;-49
2022/11/21 00:05:42;;;;;;;11.07;4.63;;;;;;;6.45;100.00;100577.03;5062548;28;20419;-51
2022/11/21 00:08:09;;;;;;;11.18;4.00;;;;;;;6.43;100.00;100568.44;5059602;28;20052;-51
2022/11/21 00:10:35;;;;;;;10.63;4.45;;;;;;;6.44;100.00;100561.66;5064282;28;20875;-47
2022/11/21 00:13:01;;;;;;;10.55;3.75;;;;;;;6.45;100.00;100565.94;5060129;28;20062;-49
2022/11/21 00:15:26;;;;;;;8.95;3.15;;;;;;;6.45;100.00;100564.25;5060626;28;20032;-50
2022/11/21 00:17:52;;;;;;;9.80;3.75;;;;;;;6.46;100.00;100580.47;5065199;28;20416;-51
2022/11/21 00:20:19;;;;;;;14.18;3.75;;;;;;;6.43;100.00;100591.44;5064021;28;20033;-47
2022/11/21 00:22:44;;;;;;;9.30;4.55;;;;;;;6.46;100.00;100598.34;5063402;28;20035;-46
2022/11/21 00:25:10;;;;;;;14.80;6.18;;;;;;;6.44;100.00;100598.28;5064421;28;20028;-55
2022/11/21 00:27:36;;;;;;;15.25;6.47;;;;;;;6.45;100.00;100606.81;5063466;28;20685;-50
2022/11/21 00:30:01;;;;;;;12.55;7.20;;;;;;;6.41;100.00;100615.16;5062792;28;20665;-49
2022/11/21 00:32:27;;;;;;;21.73;11.18;;;;;;;6.43;100.00;100619.53;5061536;28;20044;-49
2022/11/21 00:34:52;;;;;;;24.27;14.70;;;;;;;6.39;100.00;100624.44;5060264;28;20029;-49
2022/11/21 00:37:17;;;;;;;25.58;15.93;;;;;;;6.36;100.00;100609.84;5060962;28;20055;-49
2022/11/21 00:39:43;;;;;;;26.30;16.83;;;;;;;6.28;98.66;100611.22;5059902;28;20389;-49
2022/11/21 00:42:08;;;;;;;25.85;17.48;;;;;;;6.24;97.73;100596.59;5061791;28;20393;-49
2022/11/21 00:44:33;;;;;;;27.30;17.08;;;;;;;6.28;98.20;100584.81;5065126;28;20069;-48
2022/11/21 00:46:59;;;;;;;26.90;17.15;;;;;;;6.21;97.23;100570.06;5072401;28;20025;-50
2022/11/21 00:49:24;;;;;;;26.75;17.08;;;;;;;6.17;97.67;100569.06;5065384;28;20362;-49
2022/11/21 00:51:50;;;;;;;27.85;17.73;;;;;;;6.17;97.71;100563.97;5064691;28;20115;-49
2022/11/21 00:54:15;;;;;;;27.80;18.00;;;;;;;6.21;97.93;100583.72;5061031;28;20111;-49
2022/11/21 00:56:40;;;;;;;27.23;17.25;;;;;;;6.16;96.97;100588.63;5066123;28;20131;-48
2022/11/21 00:59:06;;;;;;;25.52;17.38;;;;;;;6.21;96.86;100593.91;5062740;28;20103;-49
2022/11/21 01:01:31;;;;;;;26.67;17.65;;;;;;;6.13;96.21;100597.84;5063671;28;20078;-49
2022/11/21 01:03:58;;;;;;;28.05;18.00;;;;;;;6.11;96.40;100599.44;5062211;28;20029;-50
2022/11/21 01:06:23;;;;;;;27.45;17.15;;;;;;;6.12;96.22;100598.63;5060383;28;20032;-50
2022/11/21 01:08:49;;;;;;;29.67;18.10;;;;;;;6.15;95.96;100611.53;5061728;28;20417;-48
2022/11/21 01:11:16;;;;;;;29.13;17.88;;;;;;;6.12;95.48;100611.38;5062587;28;20493;-50
2022/11/21 01:13:43;;;;;;;26.63;17.60;;;;;;;6.07;95.12;100601.00;5064014;28;20483;-48
2022/11/21 01:16:11;;;;;;;25.83;16.70;;;;;;;6.05;95.41;100602.59;5058858;28;20025;-48
2022/11/21 01:18:36;;;;;;;28.88;17.02;;;;;;;6.00;95.42;100606.63;5064698;28;20508;-50
2022/11/21 01:21:11;;;;;;;27.70;17.17;;;;;;;6.05;95.65;100610.25;5066715;28;20036;-50
2022/11/21 01:23:37;;;;;;;24.88;16.48;;;;;;;6.07;95.39;100611.22;5062635;28;20127;-49
2022/11/21 01:26:05;;;;;;;25.20;16.98;;;;;;;6.08;95.18;100609.53;5064050;28;20127;-49
2022/11/21 01:28:31;;;;;;;26.75;16.70;;;;;;;6.09;95.30;100601.06;5065855;28;20513;-49
2022/11/21 01:31:04;;;;;;;26.42;17.50;;;;;;;6.12;95.30;100596.06;5062101;28;20068;-51
2022/11/21 01:33:30;;;;;;;26.13;17.42;;;;;;;6.08;94.78;100594.22;5061107;28;20055;-50
2022/11/21 01:35:55;;;;;;;25.92;17.33;;;;;;;6.06;95.07;100590.72;5061017;28;20597;-49
2022/11/21 01:38:20;;;;;;;23.52;16.83;;;;;;;6.04;94.73;100600.88;5061021;28;20028;-48
2022/11/21 01:40:45;;;;;;;27.13;17.42;;;;;;;6.05;94.71;100604.28;5061565;28;20124;-49
2022/11/21 01:43:14;;;;;;;29.63;18.10;;;;;;;5.97;94.44;100583.56;5059391;28;20059;-50
2022/11/21 01:45:54;;;;;;;26.85;17.30;;;;;;;6.03;95.06;100570.19;5064061;28;20030;-50
2022/11/21 01:48:41;;;;;;;27.33;17.67;;;;;;;5.97;94.56;100575.03;5061940;28;20024;-49
2022/11/21 01:51:33;;;;;;;26.92;17.48;;;;;;;5.97;94.94;100590.34;5062405;28;20101;-51
2022/11/21 01:54:06;;;;;;;29.00;18.95;;;;;;;5.97;95.09;100600.56;5056076;28;20405;-50
2022/11/21 01:56:38;;;;;;;29.73;17.75;;;;;;;5.97;95.24;100601.44;5061304;28;20387;-54
2022/11/21 01:59:08;;;;;;;27.77;18.30;;;;;;;5.94;94.93;100595.31;5063261;28;20029;-52
2022/11/21 02:01:35;;;;;;;30.25;18.40;;;;;;;5.93;95.29;100596.13;5064342;28;20044;-49
2022/11/21 02:04:02;;;;;;;28.25;18.70;;;;;;;5.97;95.39;100601.44;5059967;28;20032;-49
2022/11/21 02:06:30;;;;;;;30.17;18.92;;;;;;;5.99;95.19;100596.38;5062901;28;21786;-48
2022/11/21 02:08:56;;;;;;;28.73;18.42;;;;;;;6.00;94.95;100595.56;5060646;28;20136;-48
2022/11/21 02:11:30;;;;;;;30.52;19.02;;;;;;;6.03;95.37;100599.13;5061067;28;20493;-49
2022/11/21 02:13:56;;;;;;;31.08;18.45;;;;;;;5.97;94.99;100601.44;5064680;28;20056;-48
2022/11/21 02:16:23;;;;;;;28.92;18.42;;;;;;;5.97;94.74;100601.44;5063832;28;20456;-50
2022/11/21 02:18:48;;;;;;;31.55;19.25;;;;;;;5.94;94.80;100591.06;5061052;28;20497;-49
2022/11/21 02:21:29;;;;;;;28.15;18.10;;;;;;;6.00;94.71;100606.63;5061375;28;20021;-48
2022/11/21 02:24:44;;;;;;;32.45;19.80;;;;;;;6.02;94.93;100592.28;5062018;28;20024;-50
2022/11/21 02:27:10;;;;;;;31.15;19.23;;;;;;;5.96;94.92;100598.81;5043981;28;20127;-50
2022/11/21 02:29:37;;;;;;;30.55;19.02;;;;;;;5.92;94.59;100605.47;5059723;28;20166;-49
2022/11/21 02:32:04;;;;;;;33.05;19.25;;;;;;;5.86;95.12;100613.69;5065327;28;20115;-49
2022/11/21 02:34:30;;;;;;;31.15;19.83;;;;;;;5.93;94.94;100614.84;5063937;28;20025;-47
2022/11/21 02:36:55;;;;;;;30.38;19.73;;;;;;;5.95;94.35;100617.50;5063355;28;20048;-48
2022/11/21 02:39:47;;;;;;;33.58;19.48;;;;;;;5.99;94.76;100611.69;5062033;28;20028;-49
2022/11/21 02:42:22;;;;;;;31.17;19.25;;;;;;;5.93;94.33;100611.44;5060380;28;20044;-49
2022/11/21 02:44:56;;;;;;;31.75;20.00;;;;;;;5.94;94.55;100605.50;5067369;28;20103;-48
2022/11/21 02:47:22;;;;;;;32.83;19.83;;;;;;;5.84;94.35;100617.00;5061701;28;20111;-48
2022/11/21 02:49:57;;;;;;;32.40;20.65;;;;;;;5.87;94.82;100622.22;5063900;28;20503;-50
2022/11/21 02:52:22;;;;;;;33.42;19.67;;;;;;;5.82;94.33;100616.03;5059059;28;20111;-50
2022/11/21 02:54:48;;;;;;;34.45;20.77;;;;;;;5.86;94.29;100633.22;5061793;28;20111;-49
2022/11/21 02:57:13;;;;;;;33.45;20.83;;;;;;;5.88;94.48;100636.72;5062560;28;20078;-48
2022/11/21 02:59:38;;;;;;;35.20;20.85;;;;;;;5.87;94.39;100630.75;5061405;28;20040;-50
2022/11/21 03:02:04;;;;;;;33.40;21.10;;;;;;;5.90;94.15;100624.91;5063163;28;20046;-47
2022/11/21 03:04:29;;;;;;;32.67;20.27;;;;;;;5.88;93.94;100617.19;5064282;28;20024;-47
2022/11/21 03:06:54;;;;;;;33.67;20.85;;;;;;;5.84;93.72;100609.34;5063080;28;20081;-49
2022/11/21 03:09:20;;;;;;;33.70;20.92;;;;;;;5.87;93.94;100609.47;5060306;28;20047;-48
2022/11/21 03:11:45;;;;;;;34.55;20.33;;;;;;;5.79;93.55;100610.81;5062709;28;20079;-51
2022/11/21 03:14:10;;;;;;;34.20;20.23;;;;;;;5.75;94.04;100599.59;5061962;28;20031;-50
2022/11/21 03:16:36;;;;;;;36.10;20.52;;;;;;;5.76;94.34;100605.56;5063475;28;20028;-49
2022/11/21 03:19:01;;;;;;;32.33;19.95;;;;;;;5.77;94.23;100598.00;5065914;28;20032;-49
2022/11/21 03:21:26;;;;;;;33.38;20.63;;;;;;;5.73;93.98;100597.78;5063008;28;20028;-47
2022/11/21 03:23:52;;;;;;;30.60;19.67;;;;;;;5.73;94.68;100595.25;5063574;28;20027;-50
2022/11/21 03:26:17;;;;;;;31.25;20.10;;;;;;;5.77;94.56;100587.78;5064113;28;20031;-51
2022/11/21 03:28:42;;;;;;;29.65;19.30;;;;;;;5.73;94.34;100585.03;5061444;28;20043;-49
2022/11/21 03:31:08;;;;;;;29.95;18.90;;;;;;;5.71;94.13;100577.31;5062214;28;20028;-48
2022/11/21 03:33:33;;;;;;;32.78;20.35;;;;;;;5.71;94.36;100582.44;5061200;28;20033;-48
2022/11/21 03:35:58;;;;;;;30.10;18.85;;;;;;;5.73;94.66;100583.34;5062679;28;20127;-51
2022/11/21 03:38:24;;;;;;;34.17;20.02;;;;;;;5.74;94.67;100591.88;5059889;28;20107;-55
2022/11/21 03:40:49;;;;;;;33.55;19.77;;;;;;;5.77;94.77;100586.94;5063805;28;20123;-48
2022/11/21 03:43:15;;;;;;;33.58;20.27;;;;;;;5.75;94.61;100586.84;5063275;28;20033;-51
2022/11/21 03:45:40;;;;;;;32.50;19.50;;;;;;;5.77;94.19;100586.94;5066332;28;20061;-49
2022/11/21 03:48:06;;;;;;;28.50;19.27;;;;;;;5.75;94.71;100591.94;5062068;28;20025;-50
2022/11/21 03:50:31;;;;;;;32.53;18.95;;;;;;;5.78;95.03;100591.22;5065172;28;20487;-50
2022/11/21 03:52:56;;;;;;;32.78;20.02;;;;;;;5.74;94.67;100590.19;5066168;28;20060;-51
2022/11/21 03:55:22;;;;;;;33.47;20.40;;;;;;;5.70;94.59;100579.78;5060531;28;20486;-48
2022/11/21 03:57:47;;;;;;;33.47;20.15;;;;;;;5.69;95.00;100573.81;5064107;28;20059;-49
2022/11/21 04:00:13;;;;;;;33.08;20.27;;;;;;;5.69;94.95;100572.94;5063433;28;20335;-48
2022/11/21 04:02:38;;;;;;;32.47;20.25;;;;;;;5.70;95.23;100580.66;5065038;28;20062;-48
2022/11/21 04:05:04;;;;;;;35.83;21.02;;;;;;;5.69;95.14;100584.03;5066657;28;20063;-49
2022/11/21 04:07:29;;;;;;;36.25;20.55;;;;;;;5.72;95.51;100584.16;5052620;28;20067;-49
2022/11/21 04:09:55;;;;;;;37.38;21.02;;;;;;;5.69;95.38;100589.13;5057637;28;20028;-50
2022/11/21 04:12:20;;;;;;;34.05;21.13;;;;;;;5.67;95.23;100585.66;5063909;28;20028;-48
2022/11/21 04:14:45;;;;;;;35.67;21.05;;;;;;;5.71;95.34;100592.63;5063969;28;20025;-49
2022/11/21 04:17:11;;;;;;;33.92;20.83;;;;;;;5.67;95.10;100593.31;5062885;28;20024;-51
2022/11/21 04:19:36;;;;;;;33.78;20.55;;;;;;;5.72;95.53;100594.38;5064871;28;20082;-50
2022/11/21 04:22:01;;;;;;;32.60;20.48;;;;;;;5.70;95.27;100593.41;5063027;28;20036;-50
2022/11/21 04:24:27;;;;;;;31.40;20.33;;;;;;;5.74;95.14;100592.75;5064545;28;20485;-50
2022/11/21 04:26:55;;;;;;;29.73;18.92;;;;;;;5.77;94.49;100590.34;5064195;28;20119;-48
2022/11/21 04:29:21;;;;;;;32.05;19.98;;;;;;;5.72;95.09;100596.06;5066600;28;20024;-49
2022/11/21 04:31:46;;;;;;;33.03;20.50;;;;;;;5.68;94.81;100591.63;5064556;28;20032;-48
2022/11/21 04:34:11;;;;;;;31.65;20.27;;;;;;;5.70;95.44;100587.44;5066691;28;20036;-49
2022/11/21 04:36:37;;;;;;;32.03;20.30;;;;;;;5.73;95.27;100587.59;5063256;28;20133;-49
2022/11/21 04:39:02;;;;;;;32.08;20.35;;;;;;;5.70;95.50;100590.00;5065772;28;20307;-50
2022/11/21 04:41:28;;;;;;;34.17;20.60;;;;;;;5.72;95.59;100575.66;5065750;28;20033;-48
2022/11/21 04:43:53;;;;;;;32.83;19.98;;;;;;;5.68;95.48;100574.63;5061931;28;20071;-50
2022/11/21 04:46:19;;;;;;;31.42;19.55;;;;;;;5.68;95.46;100564.44;5064144;28;20158;-52
2022/11/21 04:48:44;;;;;;;28.33;18.35;;;;;;;5.70;95.52;100555.16;5064463;28;20028;-50
2022/11/21 04:51:09;;;;;;;34.85;19.33;;;;;;;5.71;95.76;100561.16;5062178;28;20049;-52
2022/11/21 04:53:35;;;;;;;27.85;17.73;;;;;;;5.68;95.38;100561.88;5064029;28;20377;-49
2022/11/21 04:56:04;;;;;;;26.17;17.83;;;;;;;5.67;95.79;100562.69;5066406;28;20021;-50
2022/11/21 04:58:30;;;;;;;26.52;18.05;;;;;;;5.67;95.41;100560.13;5062792;28;20029;-49
2022/11/21 05:00:55;;;;;;;28.92;18.35;;;;;;;5.64;95.34;100552.34;5066947;28;20100;-49
2022/11/21 05:03:20;;;;;;;30.58;19.33;;;;;;;5.69;95.65;100548.31;5063973;28;20052;-49
2022/11/21 05:05:46;;;;;;;30.42;19.05;;;;;;;5.65;95.45;100552.44;5063497;28;20025;-48
2022/11/21 05:08:11;;;;;;;30.20;18.33;;;;;;;5.68;95.16;100551.66;5063161;28;20045;-49
2022/11/21 05:13:19;;;;;;;29.63;19.25;;;;;;;5.66;95.31;100545.66;5066728;28;20025;-49
2022/11/21 05:13:22;;;;;;;27.50;18.70;;;;;;;5.60;95.53;100542.84;5063907;28;20113;-49
2022/11/21 05:15:51;;;;;;;32.55;18.40;;;;;;;5.63;95.74;100545.50;5064309;28;20457;-48
2022/11/21 05:18:19;;;;;;;30.33;18.73;;;;;;;5.68;95.76;100538.91;5062959;28;20020;-50
2022/11/21 05:20:44;;;;;;;29.27;17.88;;;;;;;5.63;95.58;100532.75;5065636;28;20454;-49
2022/11/21 05:23:09;;;;;;;33.47;18.15;;;;;;;5.60;95.46;100528.41;5065579;28;20039;-49
2022/11/21 05:25:35;;;;;;;39.40;19.33;;;;;;;5.61;95.65;100525.03;5065286;28;20080;-50
2022/11/21 05:28:00;;;;;;;38.08;18.30;;;;;;;5.56;95.91;100525.66;5064476;28;20037;-47
2022/11/21 05:30:25;;;;;;;43.47;19.00;;;;;;;5.56;95.88;100521.41;5066023;28;20523;-48
2022/11/21 05:32:51;;;;;;;29.20;18.60;;;;;;;5.59;96.09;100529.22;5064976;28;20033;-49
2022/11/21 05:35:16;;;;;;;28.85;17.50;;;;;;;5.60;95.72;100528.41;5063146;28;20476;-49
2022/11/21 05:37:42;;;;;;;34.78;17.27;;;;;;;5.55;95.94;100521.34;5064570;28;20046;-51
2022/11/21 05:40:07;;;;;;;31.13;16.30;;;;;;;5.51;95.79;100515.25;5062468;28;20037;-49
2022/11/21 05:45:17;;;;;;;26.70;16.25;;;;;;;5.55;96.21;100518.81;5065631;28;20052;-47
2022/11/21 05:47:42;;;;;;;28.85;16.33;;;;;;;5.47;96.22;100515.94;5059351;28;20040;-48
2022/11/21 05:50:08;;;;;;;34.13;16.42;;;;;;;5.49;96.06;100514.31;5059651;28;20040;-49
2022/11/21 05:52:33;;;;;;;26.20;16.42;;;;;;;5.52;96.30;100513.56;5061160;28;20037;-49
2022/11/21 05:54:58;;;;;;;23.23;15.15;;;;;;;5.50;96.23;100515.19;5057193;28;20040;-51
2022/11/21 05:57:24;;;;;;;22.50;15.43;;;;;;;5.50;96.11;100515.19;5056974;28;20119;-50
2022/11/21 05:59:49;;;;;;;34.67;15.45;;;;;;;5.51;96.52;100504.16;5062180;28;20123;-49
2022/11/21 06:04:58;;;;;;;34.63;15.15;;;;;;;5.43;96.25;100497.88;5063150;28;20051;-48
2022/11/21 06:07:24;;;;;;;20.17;14.85;;;;;;;5.47;96.67;100502.31;5059097;28;20036;-50
2022/11/21 06:09:49;;;;;;;21.60;15.10;;;;;;;5.51;96.61;100501.63;5060953;28;20384;-50
2022/11/21 06:12:14;;;;;;;39.58;15.40;;;;;;;5.46;96.90;100492.91;5060891;28;20068;-49
2022/11/21 06:14:40;;;;;;;26.85;15.85;;;;;;;5.46;96.64;100495.44;5064144;28;20081;-48
2022/11/21 06:17:05;;;;;;;22.80;15.65;;;;;;;5.49;96.73;100506.66;5060945;28;20093;-49
2022/11/21 06:19:30;;;;;;;27.05;15.68;;;;;;;5.46;96.95;100503.09;5061710;28;20040;-49
2022/11/21 06:21:56;;;;;;;31.83;15.88;;;;;;;5.51;97.04;100506.72;5063128;28;20036;-49
2022/11/21 06:24:21;;;;;;;25.50;15.25;;;;;;;5.51;97.38;100504.16;5063551;28;20032;-49
2022/11/21 06:26:46;;;;;;;24.23;15.82;;;;;;;5.54;97.15;100496.66;5061312;28;20044;-50
2022/11/21 06:29:11;;;;;;;25.75;15.85;;;;;;;5.55;97.57;100493.31;5059827;28;20044;-50
2022/11/21 06:31:37;;;;;;;21.98;15.18;;;;;;;5.58;97.71;100483.22;5058223;28;20043;-49
2022/11/21 06:34:02;;;;;;;28.98;16.88;;;;;;;5.60;97.69;100482.50;5062018;28;20033;-51
2022/11/21 06:36:28;;;;;;;26.58;16.33;;;;;;;5.59;97.88;100479.88;5060813;28;20070;-50
2022/11/21 06:38:55;;;;;;;24.80;16.05;;;;;;;5.60;98.05;100473.97;5062118;28;20047;-49
2022/11/21 06:41:25;;;;;;;27.30;15.60;;;;;;;5.61;98.21;100479.13;5061287;28;20050;-51
2022/11/21 06:43:50;;;;;;;27.25;16.50;;;;;;;5.62;97.87;100475.75;5061699;28;20052;-49
2022/11/21 06:46:16;;;;;;;25.98;16.38;;;;;;;5.64;98.21;100474.16;5064486;28;20036;-48
2022/11/21 06:48:42;;;;;;;26.08;15.85;;;;;;;5.63;98.18;100472.41;5062449;28;20492;-49
2022/11/21 06:51:15;;;;;;;25.65;14.80;;;;;;;5.68;98.53;100470.03;5060245;28;20040;-48
2022/11/21 06:53:40;;;;;;;25.58;15.40;;;;;;;5.67;98.22;100472.53;5063846;28;20078;-48
2022/11/21 06:56:06;;;;;;;26.33;15.95;;;;;;;5.66;98.39;100471.66;5057604;28;20024;-49
2022/11/21 06:58:31;;;;;;;24.02;15.40;;;;;;;5.72;98.62;100469.38;5061354;28;20048;-49
2022/11/21 07:00:57;;;;;;;28.02;16.08;;;;;;;5.67;98.42;100468.31;5062531;28;20404;-48
2022/11/21 07:03:23;;;;;;;27.70;16.65;;;;;;;5.70;98.71;100470.09;5062882;28;20435;-49
2022/11/21 07:05:48;;;;;;;23.80;15.35;;;;;;;5.71;98.54;100462.53;5063605;28;20123;-49
2022/11/21 07:08:14;;;;;;;25.02;15.80;;;;;;;5.73;98.69;100458.34;5061988;28;20052;-48
2022/11/21 07:10:40;;;;;;;25.20;15.57;;;;;;;5.72;99.04;100448.09;5063390;28;20094;-48
2022/11/21 07:13:20;;;;;;;25.27;15.65;;;;;;;5.71;99.49;100444.69;5062215;28;20044;-49
2022/11/21 07:15:48;;;;;;;22.75;15.40;;;;;;;5.77;99.63;100451.72;5070142;28;20104;-50
2022/11/21 07:18:14;;;;;;;25.45;16.20;;;;;;;5.76;99.96;100453.34;5070138;28;20465;-47
2022/11/21 07:20:40;;;;;;;24.90;15.75;;;;;;;5.79;99.92;100444.97;5073162;28;20024;-49
2022/11/21 07:23:07;;;;;;;23.35;16.13;;;;;;;5.78;100.00;100441.56;5072451;28;20032;-45
2022/11/21 07:25:33;;;;;;;25.30;15.60;;;;;;;5.78;99.99;100450.91;5068621;28;20513;-50
2022/11/21 07:28:02;;;;;;;24.08;15.95;;;;;;;5.79;100.00;100444.97;5067548;28;20116;-50
2022/11/21 07:30:28;;;;;;;22.00;15.43;;;;;;;5.82;99.87;100443.41;5067372;28;20035;-49
2022/11/21 07:32:55;;;;;;;21.67;14.98;;;;;;;5.84;100.00;100446.91;5066806;28;20032;-49
2022/11/21 07:35:20;;;;;;;24.83;15.70;;;;;;;5.90;100.00;100454.81;5062728;28;20048;-50
2022/11/21 07:37:46;;;;;;;21.55;14.80;;;;;;;5.94;100.00;100457.50;5064593;28;20529;-51
2022/11/21 07:40:11;;;;;;;20.42;14.07;;;;;;;5.99;100.00;100453.47;5065877;28;20063;-48
2022/11/21 07:42:37;;;;;;;23.00;15.05;;;;;;;5.96;100.00;100438.91;5066557;28;20477;-49
2022/11/21 07:45:03;;;;;;;21.58;14.77;;;;;;;5.99;100.00;100450.91;5068269;28;20119;-49
2022/11/21 07:47:28;;;;;;;26.23;15.40;;;;;;;6.00;100.00;100440.75;5064020;28;20060;-49
2022/11/21 07:49:53;;;;;;;24.70;15.98;;;;;;;6.03;100.00;100438.34;5068505;28;20040;-50
2022/11/21 07:52:19;;;;;;;22.42;15.02;;;;;;;6.02;100.00;100445.94;5066753;28;20052;-53
2022/11/21 07:54:44;;;;;;;28.65;15.00;;;;;;;6.04;100.00;100445.16;5066156;28;20442;-51
2022/11/21 07:57:09;;;;;;;24.42;15.23;;;;;;;6.05;100.00;100438.38;5065246;28;20031;-50
2022/11/21 07:59:36;;;;;;;22.52;14.52;;;;;;;6.07;100.00;100440.19;5065574;28;20047;-48
2022/11/21 08:02:02;;;;;;;21.33;14.65;;;;;;;6.09;100.00;100446.22;5065427;28;20032;-50
2022/11/21 08:04:27;;;;;;;22.23;14.30;;;;;;;6.12;100.00;100437.81;5064890;28;20111;-50
2022/11/21 08:06:53;;;;;;;24.17;14.68;;;;;;;6.13;100.00;100437.03;5065163;28;20438;-50
2022/11/21 08:09:18;;;;;;;25.17;14.23;;;;;;;6.16;100.00;100430.34;5063249;28;20456;-50
2022/11/21 08:11:43;;;;;;;24.58;14.07;;;;;;;6.16;100.00;100426.91;5065558;28;20623;-48
2022/11/21 08:14:09;;;;;;;21.75;13.60;;;;;;;6.20;100.00;100431.34;5062601;28;20431;-51
2022/11/21 08:16:34;;;;;;;21.60;13.73;;;;;;;6.23;100.00;100426.34;5063392;28;21846;-52
2022/11/21 08:19:00;;;;;;;20.08;12.65;;;;;;;6.24;100.00;100428.06;5068283;28;20042;-50
2022/11/21 08:21:26;;;;;;;18.73;12.30;;;;;;;6.26;100.00;100420.50;5063659;28;20025;-50
2022/11/21 08:23:52;;;;;;;18.65;12.25;;;;;;;6.28;100.00;100417.16;5060192;28;20111;-50
2022/11/21 08:26:17;;;;;;;19.10;12.00;;;;;;;6.29;100.00;100410.38;5063190;28;20037;-48
2022/11/21 08:28:42;;;;;;;20.13;11.60;;;;;;;6.32;100.00;100402.84;5066257;28;20027;-51
2022/11/21 08:31:08;;;;;;;16.05;11.50;;;;;;;6.32;100.00;100413.94;5063583;28;20036;-50
2022/11/21 08:33:34;;;;;;;15.77;10.77;;;;;;;6.36;100.00;100404.69;5065860;28;20078;-54
2022/11/21 08:36:04;;;;;;;16.35;10.52;;;;;;;6.42;100.00;100402.34;5068248;28;20040;-52
2022/11/21 08:38:29;;;;;;;18.33;11.10;;;;;;;6.43;100.00;100399.88;5063531;28;20062;-50
2022/11/21 08:43:38;;;;;;;16.00;9.38;;;;;;;6.45;100.00;100380.38;5067100;28;20090;-51
2022/11/21 08:46:03;;;;;;;14.18;9.02;;;;;;;6.45;100.00;100367.59;5064094;28;20036;-48
2022/11/21 08:48:29;;;;;;;16.75;8.98;;;;;;;6.50;100.00;100374.56;5062605;28;20044;-52
2022/11/21 08:50:56;;;;;;;14.63;8.50;;;;;;;6.63;100.00;100379.31;5062819;28;20025;-50
2022/11/21 08:53:22;;;;;;;14.90;8.63;;;;;;;6.69;100.00;100376.97;5064645;28;20060;-50
2022/11/21 08:55:47;;;;;;;16.42;8.57;;;;;;;6.74;100.00;100366.91;5065615;28;21025;-48
2022/11/21 08:58:13;;;;;;;12.75;7.28;;;;;;;6.87;100.00;100372.50;5070457;28;20036;-50
2022/11/21 09:00:38;;;;;;;16.30;7.50;;;;;;;6.97;100.00;100369.44;5066263;28;20025;-48
2022/11/21 09:03:04;;;;;;;10.27;6.68;;;;;;;7.11;100.00;100366.50;5064338;28;20032;-48
2022/11/21 09:05:29;;;;;;;11.15;5.88;;;;;;;7.21;99.27;100371.09;5062051;28;20035;-54
2022/11/21 09:07:56;;;;;;;13.00;5.63;;;;;;;7.26;98.69;100356.78;5066131;28;20131;-52
2022/11/21 09:10:22;;;;;;;9.85;5.25;;;;;;;7.33;98.08;100357.84;5063608;28;20032;-51
2022/11/21 09:12:47;;;;;;;11.70;5.55;;;;;;;7.37;98.11;100349.47;5065383;28;20086;-60
2022/11/21 09:18:04;;;;;;;8.57;4.60;;;;;;;7.44;98.18;100346.28;5065953;28;20409;-51
2022/11/21 09:20:37;;;;;;;10.18;4.28;;;;;;;7.49;97.78;100349.84;5058813;28;20036;-52
2022/11/21 09:23:10;;;;;;;6.45;4.13;;;;;;;7.50;97.62;100346.47;5062500;28;20489;-52
2022/11/21 09:25:36;;;;;;;12.50;4.25;;;;;;;7.53;97.51;100350.00;5049027;28;20033;-51
2022/11/21 09:28:02;;;;;;;11.32;4.05;;;;;;;7.51;97.60;100331.16;5057677;28;20048;-49
2022/11/21 09:30:27;;;;;;;9.32;4.30;;;;;;;7.53;97.53;100336.34;5056416;28;20119;-51
2022/11/21 09:32:53;;;;;;;11.13;4.22;;;;;;;7.58;97.28;100333.91;5059819;28;20150;-52
2022/11/21 09:35:19;;;;;;;6.50;3.63;;;;;;;7.60;97.61;100338.28;5058280;28;20029;-51
2022/11/21 09:37:44;;;;;;;8.23;3.80;;;;;;;7.63;97.71;100332.38;5061231;28;20504;-51
2022/11/21 09:40:16;;;;;;;9.43;4.10;;;;;;;7.68;97.78;100331.69;5060595;28;20036;-50
2022/11/21 09:42:44;;;;;;;11.45;4.60;;;;;;;7.70;97.26;100331.75;5058826;28;20043;-52
2022/11/21 09:45:19;;;;;;;10.30;5.07;;;;;;;7.74;96.88;100320.78;5054765;28;20433;-50
2022/11/21 09:47:48;;;;;;;9.60;4.20;;;;;;;7.74;96.62;100315.66;5057333;28;20025;-50
2022/11/21 09:50:13;;;;;;;12.30;3.50;;;;;;;7.80;96.32;100314.16;5059848;28;20024;-50
2022/11/21 09:53:11;;;;;;;7.72;4.10;;;;;;;7.85;96.88;100313.44;5059592;28;20037;-48
2022/11/21 09:55:44;;;;;;;11.57;3.67;;;;;;;7.89;96.63;100313.59;5057362;28;20017;-52
2022/11/21 09:58:37;;;;;;;14.25;3.80;;;;;;;7.95;96.78;100312.91;5057064;28;20536;-53
2022/11/21 10:01:03;;;;;;;10.73;3.70;;;;;;;7.98;97.05;100308.72;5057750;28;20575;-51
2022/11/21 10:03:32;;;;;;;10.98;3.65;;;;;;;8.03;96.49;100308.88;5056929;28;20119;-52
2022/11/21 10:06:09;;;;;;;10.45;3.65;;;;;;;8.11;97.10;100307.38;5055737;28;20077;-52
2022/11/21 10:08:59;;;;;;;9.48;3.40;;;;;;;8.12;94.76;100305.69;5058630;28;20071;-51
2022/11/21 10:12:35;;;;;;;9.27;3.72;;;;;;;8.19;94.94;100294.78;5058334;28;20036;-50
2022/11/21 10:15:02;;;;;;;7.45;3.40;;;;;;;8.23;95.21;100291.50;5064631;28;20078;-51
2022/11/21 10:17:49;;;;;;;11.10;3.58;;;;;;;8.28;95.83;100295.06;5060404;28;20468;-52
2022/11/21 10:20:36;;;;;;;11.93;3.50;;;;;;;8.39;95.75;100288.59;5058735;28;20029;-51
2022/11/21 10:23:25;;;;;;;7.72;3.15;;;;;;;8.50;94.68;100286.34;5056170;28;20572;-50
2022/11/21 10:26:19;;;;;;;;;;;;;;;8.60;95.13;100273.78;5060425;28;20032;-55
2022/11/21 10:28:56;;;;;;;9.55;3.10;;;;;;;8.62;93.26;100266.16;5046961;28;20535;-50
2022/11/21 10:31:21;;;;;;;9.23;3.15;;;;;;;8.62;92.90;100270.41;5059838;28;20021;-47
2022/11/21 10:33:50;;;;;;;7.63;3.03;;;;;;;8.65;92.71;100266.22;5054287;28;20047;-64
2022/11/21 10:36:24;;;;;;;9.20;3.30;;;;;;;8.62;91.49;100266.16;5058568;28;20365;-48
2022/11/21 10:38:52;;;;;;;10.43;3.22;;;;;;;8.65;92.38;100265.34;5059973;28;20072;-49
2022/11/21 10:41:23;;;;;;;8.10;3.10;;;;;;;8.65;92.75;100268.78;5059683;28;20032;-50
2022/11/21 10:47:01;;;;;;;10.05;3.00;;;;;;;8.66;92.58;100256.84;5061317;28;20393;-52
2022/11/21 10:49:31;;;;;;;10.80;3.40;;;;;;;8.65;92.09;100255.97;5062353;28;20116;-49
2022/11/21 10:52:06;;;;;;;11.30;3.40;;;;;;;8.67;91.78;100248.31;5066898;28;20027;-51
2022/11/21 10:54:31;;;;;;;9.13;2.90;;;;;;;8.59;90.28;100243.84;5063101;28;20537;-50
2022/11/21 10:57:09;;;;;;;7.65;3.03;;;;;;;8.62;90.70;100249.91;5064323;28;20032;-50
2022/11/21 10:59:35;;;;;;;6.47;3.10;;;;;;;8.64;90.73;100249.13;5063752;28;20382;-49
2022/11/21 11:02:22;;;;;;;9.82;2.85;;;;;;;8.66;90.92;100247.44;5060945;28;20111;-51
2022/11/21 11:04:47;;;;;;;10.55;3.08;;;;;;;8.67;89.43;100222.69;5066993;28;20567;-47
2022/11/21 11:07:26;;;;;;;11.10;3.00;;;;;;;8.73;90.61;100223.69;5059333;28;20039;-48
2022/11/21 11:10:13;;;;;;;8.45;3.00;;;;;;;8.78;90.38;100217.00;5057267;28;20127;-50
2022/11/21 11:15:25;;;;;;;9.80;3.00;;;;;;;8.91;89.48;100213.03;5061783;28;20558;-47
2022/11/21 11:17:55;;;;;;;8.20;3.00;;;;;;;8.97;90.26;100213.19;5062511;28;20029;-51
2022/11/21 11:20:37;;;;;;;8.85;3.17;;;;;;;9.04;89.42;100204.84;5063361;28;20029;-50
2022/11/21 11:23:25;;;;;;;11.02;3.17;;;;;;;9.11;90.61;100198.16;5064161;28;20016;-48
2022/11/21 11:25:59;;;;;;;8.38;2.90;;;;;;;9.13;89.04;100181.09;5062152;28;20255;-51
2022/11/21 11:28:32;;;;;;;10.50;3.17;;;;;;;9.15;88.57;100189.66;5061403;28;20040;-51
2022/11/21 11:30:58;;;;;;;6.88;2.72;;;;;;;9.19;88.30;100185.50;5060833;28;20029;-51
2022/11/21 11:33:48;;;;;;;10.85;2.80;;;;;;;9.27;88.59;100184.81;5061511;28;20769;-50
2022/11/21 11:36:18;;;;;;;10.32;2.60;;;;;;;9.26;86.91;100174.53;5062973;28;21813;-49
2022/11/21 11:38:57;;;;;;;9.38;2.85;;;;;;;9.33;87.75;100168.69;5055624;28;20029;-52
2022/11/21 11:48:09;;;;;;;9.27;2.70;;;;;;;9.54;85.80;100143.50;5062521;28;20492;-52